Shullsberg, Wisconsin
Current Conditions -  °F | °C
As of 6:55 PM on Saturday 25 Oct 2014 (Local Time) from KPVB Reporting Station
Clear Clear  
Wind Chill: 56°   Ceiling: Unl
Heat Index: 56°   Visibility: 10mi
Dew Point: 30°   Wind: 6mph
Humidity: 36%   Direction: 290°WNW
Pressure: 30.01"   Gusts: NA
Location:  42.5751°N, 90.2217°W
Report Text: KPVB 252355Z AUTO 29005KT 10SM CLR 14/M01 A3001 RMK AO1 T01351013 10202 20135
Loading
Personal Weather Stations






























Interactive Weather Map
Tropical Storm Tracking
New forecast layout! Learn more

10-Day Weather Forecast

Advertisements
Track Severe Weather on mobile